Cabazon, California
Current Conditions -  °F | °C
As of 7:53 PM on Sunday 23 Nov 2014 (Local Time) from KPSP Reporting Station
Clear Clear  
Wind Chill: 64°   Ceiling: Unl
Heat Index: 64°   Visibility: 10mi
Dew Point: 13°   Wind: 6mph
Humidity: 14%   Direction: 330°NNW
Pressure: 30.19"   Gusts: NA
Location:  33.92°N, 116.79°W
Report Text: KPSP 240353Z 33005KT 10SM CLR 18/M11 A3019 RMK AO2 SLP222 T01781106
Loading
Personal Weather Stations






























Interactive Weather Map New forecast layout! Learn more

10-Day Weather Forecast

Advertisements
Track Severe Weather on mobile